sensor_id;sensor_type;location;lat;lon;timestamp;temperature;humidity
79694;DHT22;69165;52.714;13.200;2023-05-23T05:00:37;15.20;99.90
79694;DHT22;69165;52.714;13.200;2023-05-23T05:02:39;15.30;99.90
79694;DHT22;69165;52.714;13.200;2023-05-23T05:04:40;15.30;99.90
79694;DHT22;69165;52.714;13.200;2023-05-23T05:06:41;15.30;99.90
79694;DHT22;69165;52.714;13.200;2023-05-23T05:08:42;15.30;99.90
79694;DHT22;69165;52.714;13.200;2023-05-23T05:10:44;15.30;99.90
79694;DHT22;69165;52.714;13.200;2023-05-23T05:12:45;15.30;99.90
79694;DHT22;69165;52.714;13.200;2023-05-23T05:28:28;15.60;99.90
79694;DHT22;69165;52.714;13.200;2023-05-23T05:30:29;15.50;99.90
79694;DHT22;69165;52.714;13.200;2023-05-23T05:32:30;15.60;99.90
79694;DHT22;69165;52.714;13.200;2023-05-23T05:34:32;15.60;99.90
79694;DHT22;69165;52.714;13.200;2023-05-23T05:36:34;15.60;99.90
79694;DHT22;69165;52.714;13.200;2023-05-23T05:38:36;15.60;99.90
79694;DHT22;69165;52.714;13.200;2023-05-23T05:40:37;15.50;99.90
79694;DHT22;69165;52.714;13.200;2023-05-23T05:42:38;15.40;99.90
79694;DHT22;69165;52.714;13.200;2023-05-23T05:44:39;15.40;99.90
79694;DHT22;69165;52.714;13.200;2023-05-23T05:46:42;15.40;99.90
79694;DHT22;69165;52.714;13.200;2023-05-23T05:48:43;15.40;99.90
79694;DHT22;69165;52.714;13.200;2023-05-23T05:50:44;15.40;99.90
79694;DHT22;69165;52.714;13.200;2023-05-23T05:52:46;15.50;99.90
79694;DHT22;69165;52.714;13.200;2023-05-23T05:54:47;15.50;99.90
79694;DHT22;69165;52.714;13.200;2023-05-23T05:56:49;15.50;99.90
79694;DHT22;69165;52.714;13.200;2023-05-23T05:58:50;15.50;99.90
79694;DHT22;69165;52.714;13.200;2023-05-23T06:00:51;15.60;99.90
79694;DHT22;69165;52.714;13.200;2023-05-23T06:02:52;15.50;99.90
79694;DHT22;69165;52.714;13.200;2023-05-23T06:04:54;15.50;99.90
79694;DHT22;69165;52.714;13.200;2023-05-23T06:06:55;15.50;99.90
79694;DHT22;69165;52.714;13.200;2023-05-23T06:08:56;15.60;99.90
79694;DHT22;69165;52.714;13.200;2023-05-23T06:10:57;15.50;99.90
79694;DHT22;69165;52.714;13.200;2023-05-23T06:12:59;15.50;99.90
79694;DHT22;69165;52.714;13.200;2023-05-23T06:15:01;15.50;99.90
79694;DHT22;69165;52.714;13.200;2023-05-23T06:17:03;15.60;99.90
79694;DHT22;69165;52.714;13.200;2023-05-23T06:19:04;15.60;99.90
79694;DHT22;69165;52.714;13.200;2023-05-23T06:21:05;15.60;99.90
79694;DHT22;69165;52.714;13.200;2023-05-23T06:23:07;15.60;99.90
79694;DHT22;69165;52.714;13.200;2023-05-23T06:25:08;15.70;99.90
79694;DHT22;69165;52.714;13.200;2023-05-23T06:27:09;15.70;99.90
79694;DHT22;69165;52.714;13.200;2023-05-23T06:29:11;15.70;99.90
79694;DHT22;69165;52.714;13.200;2023-05-23T06:31:12;15.70;99.90
79694;DHT22;69165;52.714;13.200;2023-05-23T06:33:13;15.80;99.90
79694;DHT22;69165;52.714;13.200;2023-05-23T06:35:14;15.80;99.90
79694;DHT22;69165;52.714;13.200;2023-05-23T06:37:15;15.90;99.90
79694;DHT22;69165;52.714;13.200;2023-05-23T06:39:18;15.90;99.90
79694;DHT22;69165;52.714;13.200;2023-05-23T06:41:19;15.90;99.90
79694;DHT22;69165;52.714;13.200;2023-05-23T06:43:21;15.90;99.90
79694;DHT22;69165;52.714;13.200;2023-05-23T06:45:22;15.90;99.90
79694;DHT22;69165;52.714;13.200;2023-05-23T06:47:23;15.90;99.90
79694;DHT22;69165;52.714;13.200;2023-05-23T06:49:25;15.90;99.90
79694;DHT22;69165;52.714;13.200;2023-05-23T06:51:26;15.90;99.90
79694;DHT22;69165;52.714;13.200;2023-05-23T06:53:28;16.00;99.90
79694;DHT22;69165;52.714;13.200;2023-05-23T06:55:29;16.00;99.90
79694;DHT22;69165;52.714;13.200;2023-05-23T06:57:30;16.00;99.90
79694;DHT22;69165;52.714;13.200;2023-05-23T06:59:32;16.20;99.90
79694;DHT22;69165;52.714;13.200;2023-05-23T07:01:34;16.20;99.90
79694;DHT22;69165;52.714;13.200;2023-05-23T07:03:36;16.20;99.90
79694;DHT22;69165;52.714;13.200;2023-05-23T07:05:38;16.30;99.90
79694;DHT22;69165;52.714;13.200;2023-05-23T07:07:39;16.40;99.90
79694;DHT22;69165;52.714;13.200;2023-05-23T07:09:40;16.40;99.90
79694;DHT22;69165;52.714;13.200;2023-05-23T07:11:41;16.30;99.90
79694;DHT22;69165;52.714;13.200;2023-05-23T07:13:43;16.30;99.90
79694;DHT22;69165;52.714;13.200;2023-05-23T07:15:45;16.30;99.90
79694;DHT22;69165;52.714;13.200;2023-05-23T07:17:46;16.40;99.90
79694;DHT22;69165;52.714;13.200;2023-05-23T07:19:47;16.40;99.90
79694;DHT22;69165;52.714;13.200;2023-05-23T07:21:49;16.30;99.90
79694;DHT22;69165;52.714;13.200;2023-05-23T07:23:50;16.30;99.90
79694;DHT22;69165;52.714;13.200;2023-05-23T07:25:51;16.40;99.90
79694;DHT22;69165;52.714;13.200;2023-05-23T07:27:53;16.30;99.90
79694;DHT22;69165;52.714;13.200;2023-05-23T07:29:54;16.40;99.90
79694;DHT22;69165;52.714;13.200;2023-05-23T07:31:55;16.50;99.90
79694;DHT22;69165;52.714;13.200;2023-05-23T07:33:56;16.60;99.90
79694;DHT22;69165;52.714;13.200;2023-05-23T07:35:57;16.70;99.90
79694;DHT22;69165;52.714;13.200;2023-05-23T07:37:59;16.80;99.90
79694;DHT22;69165;52.714;13.200;2023-05-23T07:40:01;17.00;99.90
79694;DHT22;69165;52.714;13.200;2023-05-23T07:42:02;16.90;99.90
79694;DHT22;69165;52.714;13.200;2023-05-23T07:44:03;17.00;99.90
79694;DHT22;69165;52.714;13.200;2023-05-23T07:46:05;17.10;99.90
79694;DHT22;69165;52.714;13.200;2023-05-23T07:48:07;17.20;99.90
79694;DHT22;69165;52.714;13.200;2023-05-23T07:50:07;17.30;99.90
79694;DHT22;69165;52.714;13.200;2023-05-23T07:52:09;17.50;99.90
79694;DHT22;69165;52.714;13.200;2023-05-23T07:54:10;17.50;99.90
79694;DHT22;69165;52.714;13.200;2023-05-23T07:56:11;17.60;99.90
79694;DHT22;69165;52.714;13.200;2023-05-23T07:58:12;17.70;99.90
79694;DHT22;69165;52.714;13.200;2023-05-23T08:00:14;17.90;99.90
79694;DHT22;69165;52.714;13.200;2023-05-23T08:02:16;17.90;99.90
79694;DHT22;69165;52.714;13.200;2023-05-23T08:04:17;18.00;99.90
79694;DHT22;69165;52.714;13.200;2023-05-23T08:06:18;18.10;99.90
79694;DHT22;69165;52.714;13.200;2023-05-23T08:08:20;18.40;99.90
79694;DHT22;69165;52.714;13.200;2023-05-23T08:10:22;18.40;99.90
79694;DHT22;69165;52.714;13.200;2023-05-23T08:12:23;18.50;99.90
79694;DHT22;69165;52.714;13.200;2023-05-23T08:14:25;18.70;99.90
79694;DHT22;69165;52.714;13.200;2023-05-23T08:16:26;18.70;99.90
79694;DHT22;69165;52.714;13.200;2023-05-23T08:18:27;18.80;99.90
79694;DHT22;69165;52.714;13.200;2023-05-23T08:20:29;18.90;99.90
79694;DHT22;69165;52.714;13.200;2023-05-23T08:22:31;19.00;99.90
79694;DHT22;69165;52.714;13.200;2023-05-23T08:24:32;19.10;99.90
79694;DHT22;69165;52.714;13.200;2023-05-23T08:26:33;19.20;99.90
79694;DHT22;69165;52.714;13.200;2023-05-23T08:28:34;19.20;99.90
79694;DHT22;69165;52.714;13.200;2023-05-23T08:30:36;19.30;99.90
79694;DHT22;69165;52.714;13.200;2023-05-23T08:32:38;19.40;99.90
79694;DHT22;69165;52.714;13.200;2023-05-23T08:34:39;19.40;99.90
79694;DHT22;69165;52.714;13.200;2023-05-23T08:36:40;19.50;99.90
79694;DHT22;69165;52.714;13.200;2023-05-23T08:38:41;19.50;99.90
79694;DHT22;69165;52.714;13.200;2023-05-23T08:40:46;19.70;99.90
79694;DHT22;69165;52.714;13.200;2023-05-23T08:42:46;19.60;99.90
79694;DHT22;69165;52.714;13.200;2023-05-23T08:44:46;19.70;99.90
79694;DHT22;69165;52.714;13.200;2023-05-23T08:46:47;19.70;99.90
79694;DHT22;69165;52.714;13.200;2023-05-23T08:48:50;20.00;99.90
79694;DHT22;69165;52.714;13.200;2023-05-23T08:50:51;20.00;99.90
79694;DHT22;69165;52.714;13.200;2023-05-23T08:52:53;20.10;99.90
79694;DHT22;69165;52.714;13.200;2023-05-23T08:54:54;20.20;99.90
79694;DHT22;69165;52.714;13.200;2023-05-23T08:56:55;20.30;99.90
79694;DHT22;69165;52.714;13.200;2023-05-23T08:58:57;20.50;99.90
79694;DHT22;69165;52.714;13.200;2023-05-23T09:00:58;20.60;99.90
79694;DHT22;69165;52.714;13.200;2023-05-23T09:02:59;20.80;99.90
79694;DHT22;69165;52.714;13.200;2023-05-23T09:05:00;20.90;99.90
79694;DHT22;69165;52.714;13.200;2023-05-23T09:07:02;21.40;99.90
79694;DHT22;69165;52.714;13.200;2023-05-23T09:09:04;21.60;99.90
79694;DHT22;69165;52.714;13.200;2023-05-23T09:11:07;21.50;99.90
79694;DHT22;69165;52.714;13.200;2023-05-23T09:13:08;21.50;99.90
79694;DHT22;69165;52.714;13.200;2023-05-23T09:15:10;21.40;99.90
79694;DHT22;69165;52.714;13.200;2023-05-23T09:17:18;21.40;99.90
79694;DHT22;69165;52.714;13.200;2023-05-23T09:19:19;21.30;99.90
79694;DHT22;69165;52.714;13.200;2023-05-23T09:21:22;21.30;99.90
79694;DHT22;69165;52.714;13.200;2023-05-23T09:23:22;21.20;99.90
79694;DHT22;69165;52.714;13.200;2023-05-23T09:25:24;21.10;99.90
79694;DHT22;69165;52.714;13.200;2023-05-23T09:27:25;21.10;99.90
79694;DHT22;69165;52.714;13.200;2023-05-23T09:29:27;21.30;99.90
79694;DHT22;69165;52.714;13.200;2023-05-23T09:31:28;21.30;99.90
79694;DHT22;69165;52.714;13.200;2023-05-23T09:33:35;21.30;99.90
79694;DHT22;69165;52.714;13.200;2023-05-23T09:35:42;21.50;99.90
79694;DHT22;69165;52.714;13.200;2023-05-23T09:37:38;21.60;99.90
79694;DHT22;69165;52.714;13.200;2023-05-23T09:39:38;21.60;99.90
79694;DHT22;69165;52.714;13.200;2023-05-23T09:41:40;21.40;99.90
79694;DHT22;69165;52.714;13.200;2023-05-23T09:45:52;21.50;99.90
79694;DHT22;69165;52.714;13.200;2023-05-23T09:47:51;21.50;99.90
79694;DHT22;69165;52.714;13.200;2023-05-23T09:49:52;21.60;99.90
79694;DHT22;69165;52.714;13.200;2023-05-23T09:51:57;21.60;99.90
79694;DHT22;69165;52.714;13.200;2023-05-23T09:53:58;21.50;99.90
79694;DHT22;69165;52.714;13.200;2023-05-23T09:55:59;21.60;99.90
79694;DHT22;69165;52.714;13.200;2023-05-23T09:58:00;21.70;99.90
79694;DHT22;69165;52.714;13.200;2023-05-23T10:00:02;21.80;99.90
79694;DHT22;69165;52.714;13.200;2023-05-23T10:02:05;21.60;99.90
79694;DHT22;69165;52.714;13.200;2023-05-23T10:04:05;21.60;99.90
79694;DHT22;69165;52.714;13.200;2023-05-23T10:06:09;21.60;99.90
79694;DHT22;69165;52.714;13.200;2023-05-23T10:08:11;21.30;99.90
79694;DHT22;69165;52.714;13.200;2023-05-23T10:10:10;21.30;99.90
79694;DHT22;69165;52.714;13.200;2023-05-23T10:14:20;21.30;99.90
79694;DHT22;69165;52.714;13.200;2023-05-23T10:16:22;21.20;99.90
79694;DHT22;69165;52.714;13.200;2023-05-23T10:18:24;21.30;99.90
79694;DHT22;69165;52.714;13.200;2023-05-23T10:20:25;21.30;99.90
79694;DHT22;69165;52.714;13.200;2023-05-23T10:22:25;21.40;99.90
79694;DHT22;69165;52.714;13.200;2023-05-23T10:24:27;21.50;99.90
79694;DHT22;69165;52.714;13.200;2023-05-23T10:26:29;21.40;99.90
79694;DHT22;69165;52.714;13.200;2023-05-23T10:28:31;21.50;99.90
79694;DHT22;69165;52.714;13.200;2023-05-23T10:30:33;21.60;99.90
79694;DHT22;69165;52.714;13.200;2023-05-23T10:32:37;21.70;99.90
79694;DHT22;69165;52.714;13.200;2023-05-23T10:34:37;21.70;99.90
79694;DHT22;69165;52.714;13.200;2023-05-23T10:37:11;21.70;99.90
79694;DHT22;69165;52.714;13.200;2023-05-23T10:38:57;21.50;99.90
79694;DHT22;69165;52.714;13.200;2023-05-23T10:40:59;21.40;99.90
79694;DHT22;69165;52.714;13.200;2023-05-23T10:45:18;21.40;99.90
79694;DHT22;69165;52.714;13.200;2023-05-23T10:47:24;21.20;99.90
79694;DHT22;69165;52.714;13.200;2023-05-23T10:51:37;21.20;99.90
79694;DHT22;69165;52.714;13.200;2023-05-23T10:53:35;21.30;99.90
79694;DHT22;69165;52.714;13.200;2023-05-23T10:55:35;21.20;99.90
79694;DHT22;69165;52.714;13.200;2023-05-23T10:57:37;21.20;99.90
79694;DHT22;69165;52.714;13.200;2023-05-23T10:59:38;21.10;99.90
79694;DHT22;69165;52.714;13.200;2023-05-23T11:01:39;21.10;99.90
79694;DHT22;69165;52.714;13.200;2023-05-23T11:03:52;21.00;99.90
79694;DHT22;69165;52.714;13.200;2023-05-23T11:05:53;21.00;99.90
79694;DHT22;69165;52.714;13.200;2023-05-23T11:08:10;21.00;99.90
79694;DHT22;69165;52.714;13.200;2023-05-23T11:10:12;20.80;99.90
79694;DHT22;69165;52.714;13.200;2023-05-23T11:12:13;20.40;99.90
79694;DHT22;69165;52.714;13.200;2023-05-23T11:14:15;20.40;99.90
79694;DHT22;69165;52.714;13.200;2023-05-23T11:16:30;19.90;99.90
79694;DHT22;69165;52.714;13.200;2023-05-23T11:18:32;19.90;99.90
79694;DHT22;69165;52.714;13.200;2023-05-23T11:20:33;19.80;99.90
79694;DHT22;69165;52.714;13.200;2023-05-23T11:22:35;19.80;99.90
79694;DHT22;69165;52.714;13.200;2023-05-23T11:28:55;19.70;99.90
79694;DHT22;69165;52.714;13.200;2023-05-23T11:30:56;19.60;99.90
79694;DHT22;69165;52.714;13.200;2023-05-23T11:32:57;19.60;99.90
79694;DHT22;69165;52.714;13.200;2023-05-23T11:34:59;19.50;99.90
79694;DHT22;69165;52.714;13.200;2023-05-23T11:37:00;19.60;99.90
79694;DHT22;69165;52.714;13.200;2023-05-23T11:39:02;19.60;99.90
79694;DHT22;69165;52.714;13.200;2023-05-23T11:41:04;19.50;99.90
79694;DHT22;69165;52.714;13.200;2023-05-23T11:43:07;19.40;99.90
79694;DHT22;69165;52.714;13.200;2023-05-23T11:45:07;19.40;99.90
79694;DHT22;69165;52.714;13.200;2023-05-23T11:47:09;19.30;99.90
79694;DHT22;69165;52.714;13.200;2023-05-23T11:49:11;19.30;99.90
79694;DHT22;69165;52.714;13.200;2023-05-23T11:51:14;19.30;99.90
79694;DHT22;69165;52.714;13.200;2023-05-23T11:53:13;19.30;99.90
79694;DHT22;69165;52.714;13.200;2023-05-23T11:55:15;19.10;99.90
79694;DHT22;69165;52.714;13.200;2023-05-23T11:57:17;19.00;99.90
79694;DHT22;69165;52.714;13.200;2023-05-23T11:59:19;18.90;99.90
79694;DHT22;69165;52.714;13.200;2023-05-23T12:01:20;18.90;99.90
79694;DHT22;69165;52.714;13.200;2023-05-23T12:03:21;18.80;99.90
79694;DHT22;69165;52.714;13.200;2023-05-23T12:05:22;18.70;99.90
79694;DHT22;69165;52.714;13.200;2023-05-23T12:07:24;18.50;99.90
79694;DHT22;69165;52.714;13.200;2023-05-23T12:22:07;18.20;99.90
79694;DHT22;69165;52.714;13.200;2023-05-23T12:24:11;18.20;99.90
79694;DHT22;69165;52.714;13.200;2023-05-23T12:26:12;18.30;99.90
79694;DHT22;69165;52.714;13.200;2023-05-23T12:28:13;18.30;99.90
79694;DHT22;69165;52.714;13.200;2023-05-23T12:30:15;18.30;99.90
79694;DHT22;69165;52.714;13.200;2023-05-23T12:32:17;18.30;99.90
79694;DHT22;69165;52.714;13.200;2023-05-23T12:34:18;18.30;99.90
79694;DHT22;69165;52.714;13.200;2023-05-23T12:36:21;18.30;99.90
79694;DHT22;69165;52.714;13.200;2023-05-23T12:38:21;18.30;99.90
79694;DHT22;69165;52.714;13.200;2023-05-23T12:40:23;18.30;99.90
79694;DHT22;69165;52.714;13.200;2023-05-23T12:42:25;18.30;99.90
79694;DHT22;69165;52.714;13.200;2023-05-23T12:44:29;18.20;99.90
79694;DHT22;69165;52.714;13.200;2023-05-23T12:46:30;18.20;99.90
79694;DHT22;69165;52.714;13.200;2023-05-23T12:48:32;18.20;99.90
79694;DHT22;69165;52.714;13.200;2023-05-23T12:50:33;18.30;99.90
79694;DHT22;69165;52.714;13.200;2023-05-23T12:52:35;18.20;99.90
79694;DHT22;69165;52.714;13.200;2023-05-23T12:54:36;18.20;99.90
79694;DHT22;69165;52.714;13.200;2023-05-23T12:56:38;18.20;99.90
79694;DHT22;69165;52.714;13.200;2023-05-23T12:58:39;18.10;99.90
79694;DHT22;69165;52.714;13.200;2023-05-23T13:00:40;18.10;99.90
79694;DHT22;69165;52.714;13.200;2023-05-23T13:02:42;18.00;99.90
79694;DHT22;69165;52.714;13.200;2023-05-23T13:04:43;18.00;99.90
79694;DHT22;69165;52.714;13.200;2023-05-23T13:06:45;17.90;99.90
79694;DHT22;69165;52.714;13.200;2023-05-23T13:08:46;17.80;99.90
79694;DHT22;69165;52.714;13.200;2023-05-23T13:10:48;17.60;99.90
79694;DHT22;69165;52.714;13.200;2023-05-23T13:12:49;17.60;99.90
79694;DHT22;69165;52.714;13.200;2023-05-23T13:14:51;17.40;99.90
79694;DHT22;69165;52.714;13.200;2023-05-23T13:16:53;17.40;99.90
79694;DHT22;69165;52.714;13.200;2023-05-23T13:18:54;17.30;99.90
79694;DHT22;69165;52.714;13.200;2023-05-23T13:20:55;17.30;99.90
79694;DHT22;69165;52.714;13.200;2023-05-23T13:22:56;17.20;99.90
79694;DHT22;69165;52.714;13.200;2023-05-23T13:24:58;17.20;99.90
79694;DHT22;69165;52.714;13.200;2023-05-23T13:27:00;17.10;99.90
79694;DHT22;69165;52.714;13.200;2023-05-23T13:29:01;17.10;99.90
79694;DHT22;69165;52.714;13.200;2023-05-23T13:31:02;17.00;99.90
79694;DHT22;69165;52.714;13.200;2023-05-23T13:33:04;16.90;99.90
79694;DHT22;69165;52.714;13.200;2023-05-23T13:35:06;17.10;99.90
79694;DHT22;69165;52.714;13.200;2023-05-23T13:37:07;17.00;99.90
79694;DHT22;69165;52.714;13.200;2023-05-23T13:39:09;17.30;99.90
79694;DHT22;69165;52.714;13.200;2023-05-23T13:41:10;17.30;99.90
79694;DHT22;69165;52.714;13.200;2023-05-23T13:43:12;17.30;99.90
79694;DHT22;69165;52.714;13.200;2023-05-23T13:45:13;17.30;99.90
79694;DHT22;69165;52.714;13.200;2023-05-23T13:47:14;17.20;99.90
79694;DHT22;69165;52.714;13.200;2023-05-23T13:49:16;17.00;99.90
79694;DHT22;69165;52.714;13.200;2023-05-23T13:51:18;17.00;99.90
79694;DHT22;69165;52.714;13.200;2023-05-23T13:53:19;17.00;99.90
79694;DHT22;69165;52.714;13.200;2023-05-23T13:55:20;17.00;99.90
79694;DHT22;69165;52.714;13.200;2023-05-23T13:57:21;17.10;99.90
79694;DHT22;69165;52.714;13.200;2023-05-23T13:59:25;17.10;99.90
79694;DHT22;69165;52.714;13.200;2023-05-23T14:01:24;17.20;99.90
79694;DHT22;69165;52.714;13.200;2023-05-23T14:03:25;17.10;99.90
79694;DHT22;69165;52.714;13.200;2023-05-23T14:05:27;17.10;99.90
79694;DHT22;69165;52.714;13.200;2023-05-23T14:07:28;17.10;99.90
79694;DHT22;69165;52.714;13.200;2023-05-23T14:09:29;17.10;99.90
79694;DHT22;69165;52.714;13.200;2023-05-23T14:11:31;17.20;99.90
79694;DHT22;69165;52.714;13.200;2023-05-23T14:13:32;17.20;99.90
79694;DHT22;69165;52.714;13.200;2023-05-23T14:15:33;17.20;99.90
79694;DHT22;69165;52.714;13.200;2023-05-23T14:17:35;17.20;99.90
79694;DHT22;69165;52.714;13.200;2023-05-23T14:19:36;17.20;99.90
79694;DHT22;69165;52.714;13.200;2023-05-23T14:21:38;17.20;99.90
79694;DHT22;69165;52.714;13.200;2023-05-23T14:23:40;17.20;99.90
79694;DHT22;69165;52.714;13.200;2023-05-23T14:25:42;17.10;99.90
79694;DHT22;69165;52.714;13.200;2023-05-23T14:27:43;17.10;99.90
79694;DHT22;69165;52.714;13.200;2023-05-23T14:29:45;16.90;99.90
79694;DHT22;69165;52.714;13.200;2023-05-23T14:31:46;16.80;99.90
79694;DHT22;69165;52.714;13.200;2023-05-23T14:33:48;16.50;99.90
79694;DHT22;69165;52.714;13.200;2023-05-23T14:35:50;16.40;99.90
79694;DHT22;69165;52.714;13.200;2023-05-23T14:37:52;16.00;99.90
79694;DHT22;69165;52.714;13.200;2023-05-23T14:39:53;16.00;99.90
79694;DHT22;69165;52.714;13.200;2023-05-23T14:41:55;15.80;99.90
79694;DHT22;69165;52.714;13.200;2023-05-23T14:43:56;15.80;99.90
79694;DHT22;69165;52.714;13.200;2023-05-23T14:45:57;15.70;99.90
79694;DHT22;69165;52.714;13.200;2023-05-23T14:47:59;15.70;99.90
79694;DHT22;69165;52.714;13.200;2023-05-23T14:50:00;15.60;99.90
79694;DHT22;69165;52.714;13.200;2023-05-23T14:52:01;15.60;99.90
79694;DHT22;69165;52.714;13.200;2023-05-23T14:54:03;15.60;99.90
79694;DHT22;69165;52.714;13.200;2023-05-23T14:56:05;15.50;99.90
79694;DHT22;69165;52.714;13.200;2023-05-23T14:58:06;15.50;99.90
79694;DHT22;69165;52.714;13.200;2023-05-23T15:00:07;15.50;99.90
79694;DHT22;69165;52.714;13.200;2023-05-23T15:02:10;15.40;99.90
79694;DHT22;69165;52.714;13.200;2023-05-23T15:04:12;15.30;99.90
79694;DHT22;69165;52.714;13.200;2023-05-23T15:06:14;15.20;99.90
79694;DHT22;69165;52.714;13.200;2023-05-23T15:08:16;15.10;99.90
79694;DHT22;69165;52.714;13.200;2023-05-23T15:10:17;15.10;99.90
79694;DHT22;69165;52.714;13.200;2023-05-23T15:12:19;15.10;99.90
79694;DHT22;69165;52.714;13.200;2023-05-23T15:14:20;15.00;99.90
79694;DHT22;69165;52.714;13.200;2023-05-23T15:16:22;14.90;99.90
79694;DHT22;69165;52.714;13.200;2023-05-23T15:18:23;14.90;99.90
79694;DHT22;69165;52.714;13.200;2023-05-23T15:20:25;14.80;99.90
79694;DHT22;69165;52.714;13.200;2023-05-23T15:22:27;14.80;99.90
79694;DHT22;69165;52.714;13.200;2023-05-23T15:24:28;14.80;99.90
79694;DHT22;69165;52.714;13.200;2023-05-23T15:26:29;14.80;99.90
79694;DHT22;69165;52.714;13.200;2023-05-23T15:28:31;14.70;99.90
79694;DHT22;69165;52.714;13.200;2023-05-23T15:30:32;14.70;99.90
79694;DHT22;69165;52.714;13.200;2023-05-23T15:32:33;14.60;99.90
79694;DHT22;69165;52.714;13.200;2023-05-23T15:34:35;14.50;99.90
79694;DHT22;69165;52.714;13.200;2023-05-23T15:36:38;14.40;99.90
79694;DHT22;69165;52.714;13.200;2023-05-23T15:38:39;14.40;99.90
79694;DHT22;69165;52.714;13.200;2023-05-23T15:40:40;14.30;99.90
79694;DHT22;69165;52.714;13.200;2023-05-23T15:42:41;14.30;99.90
79694;DHT22;69165;52.714;13.200;2023-05-23T15:44:42;14.20;99.90
79694;DHT22;69165;52.714;13.200;2023-05-23T15:46:45;14.20;99.90
79694;DHT22;69165;52.714;13.200;2023-05-23T15:48:47;14.20;99.90
79694;DHT22;69165;52.714;13.200;2023-05-23T15:50:48;14.20;99.90
79694;DHT22;69165;52.714;13.200;2023-05-23T15:52:49;14.20;99.90
79694;DHT22;69165;52.714;13.200;2023-05-23T15:54:51;14.20;99.90
79694;DHT22;69165;52.714;13.200;2023-05-23T15:56:52;14.20;99.90
79694;DHT22;69165;52.714;13.200;2023-05-23T15:58:53;14.20;99.90
79694;DHT22;69165;52.714;13.200;2023-05-23T16:00:55;14.10;99.90
79694;DHT22;69165;52.714;13.200;2023-05-23T16:02:56;14.10;99.90
79694;DHT22;69165;52.714;13.200;2023-05-23T16:04:57;14.00;99.90
79694;DHT22;69165;52.714;13.200;2023-05-23T16:06:59;13.90;99.90
79694;DHT22;69165;52.714;13.200;2023-05-23T16:09:00;13.80;99.90
79694;DHT22;69165;52.714;13.200;2023-05-23T16:11:01;13.80;99.90
79694;DHT22;69165;52.714;13.200;2023-05-23T16:13:03;13.80;99.90
79694;DHT22;69165;52.714;13.200;2023-05-23T16:15:04;13.80;99.90
79694;DHT22;69165;52.714;13.200;2023-05-23T16:17:05;13.70;99.90
79694;DHT22;69165;52.714;13.200;2023-05-23T16:19:07;13.70;99.90
79694;DHT22;69165;52.714;13.200;2023-05-23T16:21:09;13.60;99.90
79694;DHT22;69165;52.714;13.200;2023-05-23T16:23:10;13.60;99.90
79694;DHT22;69165;52.714;13.200;2023-05-23T16:25:12;13.60;99.90
79694;DHT22;69165;52.714;13.200;2023-05-23T17:00:59;13.30;99.90
79694;DHT22;69165;52.714;13.200;2023-05-23T17:03:00;13.30;99.90
79694;DHT22;69165;52.714;13.200;2023-05-23T17:05:02;13.20;99.90
79694;DHT22;69165;52.714;13.200;2023-05-23T17:07:03;13.10;99.90
79694;DHT22;69165;52.714;13.200;2023-05-23T17:09:05;13.10;99.90
79694;DHT22;69165;52.714;13.200;2023-05-23T17:11:06;13.10;99.90
79694;DHT22;69165;52.714;13.200;2023-05-23T17:33:04;13.00;99.90
79694;DHT22;69165;52.714;13.200;2023-05-23T17:35:05;13.00;99.90
79694;DHT22;69165;52.714;13.200;2023-05-23T17:37:07;13.00;99.90
79694;DHT22;69165;52.714;13.200;2023-05-23T17:39:08;13.00;99.90
79694;DHT22;69165;52.714;13.200;2023-05-23T18:08:15;13.00;99.90
79694;DHT22;69165;52.714;13.200;2023-05-23T18:10:17;13.00;99.90
79694;DHT22;69165;52.714;13.200;2023-05-23T18:12:19;13.00;99.90
79694;DHT22;69165;52.714;13.200;2023-05-23T18:14:21;12.90;99.90
79694;DHT22;69165;52.714;13.200;2023-05-23T18:16:23;12.90;99.90
79694;DHT22;69165;52.714;13.200;2023-05-23T18:18:25;12.90;99.90
79694;DHT22;69165;52.714;13.200;2023-05-23T18:20:26;12.90;99.90
79694;DHT22;69165;52.714;13.200;2023-05-23T18:22:28;12.90;99.90
79694;DHT22;69165;52.714;13.200;2023-05-23T18:24:29;12.90;99.90
79694;DHT22;69165;52.714;13.200;2023-05-23T18:26:31;12.90;99.90
79694;DHT22;69165;52.714;13.200;2023-05-23T18:28:32;12.90;99.90
79694;DHT22;69165;52.714;13.200;2023-05-23T18:30:34;12.90;99.90
79694;DHT22;69165;52.714;13.200;2023-05-23T18:32:35;12.90;99.90
79694;DHT22;69165;52.714;13.200;2023-05-23T18:34:36;12.90;99.90
79694;DHT22;69165;52.714;13.200;2023-05-23T18:36:38;12.90;99.90
79694;DHT22;69165;52.714;13.200;2023-05-23T18:38:40;12.80;99.90
79694;DHT22;69165;52.714;13.200;2023-05-23T18:40:41;12.80;99.90
79694;DHT22;69165;52.714;13.200;2023-05-23T18:42:42;12.90;99.90
79694;DHT22;69165;52.714;13.200;2023-05-23T18:44:44;12.80;99.90
79694;DHT22;69165;52.714;13.200;2023-05-23T18:46:46;12.80;99.90
79694;DHT22;69165;52.714;13.200;2023-05-23T18:48:47;12.80;99.90
79694;DHT22;69165;52.714;13.200;2023-05-23T18:50:48;12.90;99.90
79694;DHT22;69165;52.714;13.200;2023-05-23T18:52:50;12.80;99.90
79694;DHT22;69165;52.714;13.200;2023-05-23T18:54:51;12.80;99.90
79694;DHT22;69165;52.714;13.200;2023-05-23T18:56:53;12.80;99.90
79694;DHT22;69165;52.714;13.200;2023-05-23T18:58:55;12.80;99.90
79694;DHT22;69165;52.714;13.200;2023-05-23T19:00:57;12.80;99.90
79694;DHT22;69165;52.714;13.200;2023-05-23T19:02:59;12.80;99.90
79694;DHT22;69165;52.714;13.200;2023-05-23T19:05:01;12.80;99.90
79694;DHT22;69165;52.714;13.200;2023-05-23T19:07:02;12.80;99.90
79694;DHT22;69165;52.714;13.200;2023-05-23T19:09:04;12.80;99.90
79694;DHT22;69165;52.714;13.200;2023-05-23T19:11:06;12.80;99.90
79694;DHT22;69165;52.714;13.200;2023-05-23T19:13:07;12.80;99.90
79694;DHT22;69165;52.714;13.200;2023-05-23T19:15:09;12.80;99.90
79694;DHT22;69165;52.714;13.200;2023-05-23T19:17:10;12.80;99.90
79694;DHT22;69165;52.714;13.200;2023-05-23T19:19:11;12.80;99.90
79694;DHT22;69165;52.714;13.200;2023-05-23T19:21:13;12.80;99.90
79694;DHT22;69165;52.714;13.200;2023-05-23T19:23:14;12.80;99.90
79694;DHT22;69165;52.714;13.200;2023-05-23T19:25:15;12.80;99.90
79694;DHT22;69165;52.714;13.200;2023-05-23T19:27:18;12.90;99.90
79694;DHT22;69165;52.714;13.200;2023-05-23T19:29:19;12.90;99.90
79694;DHT22;69165;52.714;13.200;2023-05-23T19:31:21;12.90;99.90
79694;DHT22;69165;52.714;13.200;2023-05-23T19:33:23;12.90;99.90
79694;DHT22;69165;52.714;13.200;2023-05-23T19:35:24;12.90;99.90